CheckWX is a tool to help pilots better visualize weather data.  It is not intended as a substitute for an official pre-flight weather briefing.

04:50:03 UTC

KWLD METAR
Strother Field Airport
Winfield/Arkansas City, Kansas, USA
Current

56 mins ago

KWLD 180354Z AUTO 16014KT 10SM CLR 28/22 A2977 RMK AO2 SLP067 T02830217 $
Observed
Aug-18 @ 03:54 UTC
Wind
  • 160° at 14 KTS
Visibility
10 SM
Flight Rules
VFR
Cloud Levels
  • Clear skies
Temperature
28°C / 82°F
Dewpoint
22°C / 72°F
Heat Index
30°C / 86°F
Humidity
70%
Altimeter
29.77" Hg
Pressure
1008.12 hPa
Previous

2 hours ago

KWLD 180254Z AUTO 16013KT 10SM CLR 29/22 A2977 RMK AO2 SLP067 T02890222 53010 $
Observed
Aug-18 @ 02:54 UTC
Wind
  • 160° at 13 KTS
Visibility
10 SM
Flight Rules
VFR
Cloud Levels
  • Clear skies
Temperature
29°C / 84°F
Dewpoint
22°C / 72°F
Heat Index
32°C / 89°F
Humidity
66%
Altimeter
29.77" Hg
Pressure
1008.12 hPa
Previous

3 hours ago

KWLD 180154Z AUTO 13008KT 10SM CLR 29/23 A2975 RMK AO2 SLP061 T02890228 $
Observed
Aug-18 @ 01:54 UTC
Wind
  • 130° at 8 KTS
Visibility
10 SM
Flight Rules
VFR
Cloud Levels
  • Clear skies
Temperature
29°C / 84°F
Dewpoint
23°C / 73°F
Heat Index
32°C / 90°F
Humidity
70%
Altimeter
29.75" Hg
Pressure
1007.42 hPa